Time;durP1;ratioP1;P1;durP2;ratioP2;P2;SDS_P1;SDS_P2;PMS_P1;PMS_P2;Temp;Humidity;BMP_temperature;BMP_pressure;BME280_temperature;BME280_humidity;BME280_pressure;Samples;Min_cycle;Max_cycle;Signal;HPM_P1;HPM_P2
2021/03/27 00:00:18;;;;;;;11.10;6.30;;;11.90;58.70;;;;;;5115566;28;20020;-36
2021/03/27 00:03:22;;;;;;;16.75;7.55;;;11.80;60.50;;;;;;5117016;28;20097;-37
2021/03/27 00:05:54;;;;;;;10.70;6.55;;;11.60;62.30;;;;;;5115080;28;20393;-38
2021/03/27 00:08:28;;;;;;;12.23;6.35;;;10.60;68.40;;;;;;5116949;28;20035;-37
2021/03/27 00:11:04;;;;;;;8.13;6.47;;;9.80;72.70;;;;;;5116631;28;20024;-37
2021/03/27 00:14:04;;;;;;;8.40;6.38;;;9.30;74.50;;;;;;5117065;28;20020;-37
2021/03/27 00:16:30;;;;;;;10.95;6.28;;;9.10;75.40;;;;;;5116807;28;20028;-36
2021/03/27 00:19:20;;;;;;;10.35;6.57;;;9.10;75.70;;;;;;5116593;28;20032;-36
2021/03/27 00:21:51;;;;;;;8.05;6.47;;;9.10;75.70;;;;;;5116507;27;20016;-36
2021/03/27 00:24:36;;;;;;;9.88;5.93;;;9.10;75.90;;;;;;5116086;28;20020;-36
2021/03/27 00:27:14;;;;;;;7.47;5.03;;;9.00;77.00;;;;;;5115685;28;20059;-36
2021/03/27 00:29:44;;;;;;;10.02;4.47;;;9.00;76.60;;;;;;5116233;28;20046;-36
2021/03/27 00:32:17;;;;;;;6.55;3.80;;;8.80;77.00;;;;;;5116427;27;20023;-36
2021/03/27 00:34:57;;;;;;;5.90;3.58;;;8.70;77.20;;;;;;5114950;28;20088;-37
2021/03/27 00:37:26;;;;;;;4.53;3.60;;;8.50;77.50;;;;;;5116357;28;20019;-36
2021/03/27 00:40:20;;;;;;;6.97;3.92;;;8.30;78.20;;;;;;5116268;28;20024;-36
2021/03/27 00:42:51;;;;;;;6.40;4.63;;;8.20;78.50;;;;;;5114683;28;20032;-35
2021/03/27 00:45:22;;;;;;;8.23;4.85;;;8.30;78.60;;;;;;5115934;27;20019;-36
2021/03/27 00:47:52;;;;;;;6.00;5.15;;;8.30;78.90;;;;;;5115910;28;20047;-38
2021/03/27 00:50:29;;;;;;;6.85;5.22;;;8.20;79.80;;;;;;5116046;28;20024;-36
2021/03/27 00:53:00;;;;;;;8.00;5.30;;;8.10;80.00;;;;;;5115799;28;20039;-37
2021/03/27 00:55:41;;;;;;;8.10;5.72;;;7.90;80.20;;;;;;5115935;27;20024;-37
2021/03/27 00:58:14;;;;;;;11.38;5.45;;;7.60;81.30;;;;;;5115946;28;20467;-36
2021/03/27 01:00:46;;;;;;;8.02;5.22;;;7.30;82.40;;;;;;5115800;28;20028;-37
2021/03/27 01:03:20;;;;;;;9.07;5.20;;;7.10;83.10;;;;;;5115532;28;20141;-37
2021/03/27 01:05:50;;;;;;;11.45;6.93;;;6.90;83.80;;;;;;5114551;28;20021;-37
2021/03/27 01:08:17;;;;;;;6.97;4.82;;;6.80;84.10;;;;;;5114199;28;20074;-37
2021/03/27 01:10:48;;;;;;;6.85;4.20;;;6.80;84.90;;;;;;5115586;28;20035;-37
2021/03/27 01:13:19;;;;;;;;;;;6.60;85.10;;;;;;5115881;28;20019;-37
2021/03/27 01:15:53;;;;;;;5.85;4.28;;;6.60;85.20;;;;;;5115256;28;20010;-37
2021/03/27 01:18:23;;;;;;;9.38;5.60;;;6.60;85.80;;;;;;5115410;28;20030;-36
2021/03/27 01:20:57;;;;;;;13.13;5.68;;;6.50;86.20;;;;;;5115172;28;20019;-37
2021/03/27 01:23:24;;;;;;;9.93;5.35;;;6.50;86.20;;;;;;5097805;28;20032;-37
2021/03/27 01:25:56;;;;;;;8.18;6.25;;;6.40;86.70;;;;;;5113751;28;20030;-37
2021/03/27 01:28:35;;;;;;;7.05;4.47;;;6.40;87.20;;;;;;5115307;28;20080;-37
2021/03/27 01:31:15;;;;;;;7.57;5.25;;;6.50;85.40;;;;;;5113857;28;20020;-36
2021/03/27 01:34:18;;;;;;;10.65;4.70;;;6.50;84.20;;;;;;5114822;28;20031;-37
2021/03/27 01:36:56;;;;;;;6.72;5.35;;;6.40;84.60;;;;;;5115181;28;20023;-37
2021/03/27 01:39:27;;;;;;;8.10;5.72;;;6.40;85.20;;;;;;5114841;28;20026;-37
2021/03/27 01:41:57;;;;;;;7.60;5.75;;;6.40;84.60;;;;;;5114876;28;20072;-37
2021/03/27 01:44:34;;;;;;;9.18;5.78;;;6.30;84.00;;;;;;5114765;28;20055;-37
2021/03/27 01:47:16;;;;;;;8.13;5.47;;;6.30;84.00;;;;;;5114460;28;20046;-37
2021/03/27 01:49:51;;;;;;;8.95;5.88;;;6.20;83.10;;;;;;5114548;28;20387;-37
2021/03/27 01:52:39;;;;;;;10.98;6.00;;;6.20;83.70;;;;;;5114649;28;20023;-37
2021/03/27 01:55:21;;;;;;;8.68;5.97;;;6.20;83.20;;;;;;5114793;28;20019;-37
2021/03/27 01:58:02;;;;;;;12.25;6.70;;;6.20;83.10;;;;;;5114643;28;20035;-37
2021/03/27 02:00:30;;;;;;;12.65;7.32;;;6.10;83.30;;;;;;5114167;28;20042;-37
2021/03/27 02:03:08;;;;;;;10.40;6.22;;;6.20;83.40;;;;;;5114163;28;20145;-36
2021/03/27 02:05:38;;;;;;;13.55;6.97;;;6.10;83.40;;;;;;5114285;28;20023;-37
2021/03/27 02:08:07;;;;;;;11.57;6.57;;;6.10;83.60;;;;;;5114180;28;20023;-37
2021/03/27 02:11:06;;;;;;;16.88;7.38;;;6.10;83.20;;;;;;5114270;28;20031;-36
2021/03/27 02:13:32;;;;;;;6.97;5.78;;;6.20;83.30;;;;;;5112604;28;20042;-36
2021/03/27 02:16:33;;;;;;;14.20;7.22;;;6.10;83.30;;;;;;5113985;28;20019;-37
2021/03/27 02:18:58;;;;;;;;;;;6.20;83.40;;;;;;5114286;28;20440;-36
2021/03/27 02:22:13;;;;;;;12.63;7.80;;;6.10;83.90;;;;;;5113883;28;19949;-36
2021/03/27 02:24:57;;;;;;;17.67;9.88;;;6.10;84.50;;;;;;5111553;28;20034;-36
2021/03/27 02:27:42;;;;;;;17.77;8.77;;;6.20;85.80;;;;;;5113660;28;20479;-36
2021/03/27 02:30:22;;;;;;;18.27;7.78;;;6.10;84.70;;;;;;5113058;28;20143;-37
2021/03/27 02:33:08;;;;;;;16.23;8.98;;;6.10;85.60;;;;;;5114210;28;20027;-37
2021/03/27 02:35:50;;;;;;;17.65;7.93;;;6.00;85.80;;;;;;5114243;28;20058;-37
2021/03/27 02:39:07;;;;;;;16.45;8.13;;;6.10;85.90;;;;;;5114369;28;20020;-37
2021/03/27 02:41:48;;;;;;;10.98;8.18;;;6.10;85.80;;;;;;5112611;28;20535;-36
2021/03/27 02:44:22;;;;;;;17.20;8.05;;;6.10;85.60;;;;;;5114121;28;20020;-36
2021/03/27 02:46:56;;;;;;;13.02;7.43;;;6.10;85.90;;;;;;5113863;28;20031;-36
2021/03/27 02:49:28;;;;;;;12.55;7.32;;;6.10;85.90;;;;;;5112512;28;20575;-45
2021/03/27 02:52:25;;;;;;;12.43;6.60;;;6.10;85.80;;;;;;5113734;28;20023;-37
2021/03/27 02:55:09;;;;;;;11.65;7.35;;;6.10;85.70;;;;;;5113713;28;20019;-36
2021/03/27 02:58:16;;;;;;;15.23;6.75;;;6.00;85.70;;;;;;5113601;28;20106;-37
2021/03/27 03:01:00;;;;;;;14.80;5.60;;;6.10;85.50;;;;;;5071425;28;20109;-36
2021/03/27 03:03:31;;;;;;;13.77;7.18;;;6.10;85.40;;;;;;5071101;28;20021;-36
2021/03/27 03:06:16;;;;;;;11.73;5.82;;;6.10;84.90;;;;;;5098823;28;20032;-36
2021/03/27 03:08:53;;;;;;;7.47;5.45;;;6.20;85.20;;;;;;5114171;28;20532;-37
2021/03/27 03:11:27;;;;;;;8.68;6.00;;;6.10;84.90;;;;;;5113880;28;20034;-37
2021/03/27 03:14:08;;;;;;;9.20;5.28;;;6.10;85.00;;;;;;5112317;28;20043;-36
2021/03/27 03:16:37;;;;;;;5.45;4.60;;;6.20;84.70;;;;;;5113609;28;20051;-37
2021/03/27 03:19:13;;;;;;;14.05;6.72;;;6.20;84.60;;;;;;5113386;28;20386;-37
2021/03/27 03:21:45;;;;;;;7.97;5.38;;;6.10;84.20;;;;;;5113865;28;20048;-37
2021/03/27 03:24:27;;;;;;;17.48;7.20;;;6.10;84.30;;;;;;5113541;28;20437;-36
2021/03/27 03:27:41;;;;;;;12.10;5.63;;;6.20;84.40;;;;;;5113504;28;20020;-36
2021/03/27 03:30:12;;;;;;;11.57;7.60;;;6.30;84.40;;;;;;5113528;28;20478;-36
2021/03/27 03:32:49;;;;;;;10.20;6.07;;;6.30;83.50;;;;;;5112141;28;20028;-38
2021/03/27 03:35:43;;;;;;;13.60;6.00;;;6.20;83.50;;;;;;5113277;28;20028;-36
2021/03/27 03:38:11;;;;;;;16.75;6.40;;;6.30;83.40;;;;;;5113961;28;20024;-36
2021/03/27 03:40:56;;;;;;;15.05;5.88;;;6.40;83.30;;;;;;5113353;28;20035;-36
2021/03/27 03:43:44;;;;;;;13.75;6.22;;;6.30;83.40;;;;;;5113351;28;20027;-36
2021/03/27 03:46:24;;;;;;;9.95;5.05;;;6.30;83.20;;;;;;5113488;28;20024;-36
2021/03/27 03:48:49;;;;;;;12.77;7.40;;;6.30;82.70;;;;;;5113742;28;20471;-36
2021/03/27 03:51:15;;;;;;;36.40;6.50;;;6.30;82.20;;;;;;5113160;28;20030;-37
2021/03/27 03:54:02;;;;;;;13.63;4.72;;;6.30;82.30;;;;;;5113157;28;20467;-37
2021/03/27 03:56:59;;;;;;;9.70;5.13;;;6.30;82.10;;;;;;5113118;28;20047;-36
2021/03/27 03:59:52;;;;;;;9.98;4.85;;;6.20;82.50;;;;;;5116891;28;20051;-36
2021/03/27 04:02:52;;;;;;;10.32;4.75;;;6.20;82.40;;;;;;5116827;28;20443;-36
2021/03/27 04:05:51;;;;;;;10.25;3.90;;;6.20;82.20;;;;;;5116795;28;20016;-36
2021/03/27 04:08:23;;;;;;;14.35;4.20;;;6.20;81.90;;;;;;5102436;28;20487;-37
2021/03/27 04:10:55;;;;;;;6.25;3.38;;;6.20;82.10;;;;;;5116564;28;20080;-37
2021/03/27 04:13:39;;;;;;;8.65;2.65;;;6.10;82.00;;;;;;5116902;28;20467;-36
2021/03/27 04:16:07;;;;;;;9.20;3.88;;;6.20;81.50;;;;;;5116556;28;20023;-36
2021/03/27 04:18:47;;;;;;;8.75;3.70;;;6.10;81.60;;;;;;5116651;28;20077;-37
2021/03/27 04:21:21;;;;;;;10.82;4.28;;;6.10;81.80;;;;;;5116542;28;20023;-36
2021/03/27 04:23:52;;;;;;;6.15;2.85;;;6.10;81.20;;;;;;5116718;28;20495;-36
2021/03/27 04:26:20;;;;;;;7.82;3.65;;;6.10;81.20;;;;;;5115091;28;20103;-38
2021/03/27 04:28:58;;;;;;;11.30;4.60;;;6.20;81.30;;;;;;5116367;28;20027;-36
2021/03/27 04:31:50;;;;;;;15.95;3.90;;;6.20;81.10;;;;;;5114973;28;20020;-36
2021/03/27 04:34:44;;;;;;;6.45;3.53;;;6.10;81.00;;;;;;5114960;28;20027;-37
2021/03/27 04:37:27;;;;;;;9.75;3.50;;;6.10;80.70;;;;;;5114615;28;20035;-37
2021/03/27 04:40:24;;;;;;;8.95;3.83;;;6.00;81.30;;;;;;5114784;28;20032;-37
2021/03/27 04:43:19;;;;;;;10.65;4.40;;;6.00;80.90;;;;;;5116031;28;20475;-38
2021/03/27 04:45:49;;;;;;;11.18;4.32;;;6.00;81.40;;;;;;5109012;28;20448;-42
2021/03/27 04:48:22;;;;;;;12.82;4.35;;;6.00;80.90;;;;;;5115934;28;20079;-35
2021/03/27 04:50:56;;;;;;;12.52;4.82;;;6.00;81.10;;;;;;5116114;28;20051;-38
2021/03/27 04:53:36;;;;;;;9.93;4.72;;;5.90;81.20;;;;;;5115945;28;20035;-36
2021/03/27 04:56:19;;;;;;;9.48;4.53;;;6.00;81.60;;;;;;5116198;28;20019;-36
2021/03/27 04:59:17;;;;;;;13.50;4.38;;;5.90;81.50;;;;;;5115846;28;20475;-38
2021/03/27 05:01:49;;;;;;;16.83;5.43;;;6.00;81.00;;;;;;5116067;28;20016;-36
2021/03/27 05:04:31;;;;;;;10.35;4.40;;;6.10;81.00;;;;;;5115879;28;20391;-36
2021/03/27 05:07:12;;;;;;;14.40;4.43;;;6.10;81.00;;;;;;5114567;28;20077;-37
2021/03/27 05:09:47;;;;;;;12.88;4.80;;;6.10;80.80;;;;;;5115969;28;20528;-36
2021/03/27 05:12:23;;;;;;;11.93;4.32;;;6.20;80.30;;;;;;5116436;28;20047;-37
2021/03/27 05:15:28;;;;;;;12.30;3.85;;;6.20;80.30;;;;;;5115899;28;20463;-36
2021/03/27 05:18:29;;;;;;;12.30;4.60;;;6.30;80.40;;;;;;5114097;28;20020;-36
2021/03/27 05:20:59;;;;;;;;;;;6.30;79.90;;;;;;5115885;28;20019;-36
2021/03/27 05:23:40;;;;;;;11.85;4.57;;;6.30;80.50;;;;;;5115612;28;19904;-36
2021/03/27 05:26:34;;;;;;;15.95;4.43;;;6.30;80.00;;;;;;5115316;28;20012;-36
2021/03/27 05:29:10;;;;;;;15.13;4.70;;;6.30;79.90;;;;;;5115472;28;20027;-36
2021/03/27 05:32:02;;;;;;;11.05;4.70;;;6.30;79.40;;;;;;5115526;27;20606;-36
2021/03/27 05:34:31;;;;;;;13.93;5.90;;;6.40;79.00;;;;;;5115106;28;20031;-36
2021/03/27 05:37:21;;;;;;;8.50;4.35;;;6.40;78.90;;;;;;5115549;28;20057;-37
2021/03/27 05:40:15;;;;;;;14.20;5.35;;;6.40;79.00;;;;;;5113836;28;20020;-36
2021/03/27 05:43:08;;;;;;;9.50;4.72;;;6.40;79.00;;;;;;5115623;28;20027;-36
2021/03/27 05:45:58;;;;;;;12.68;4.80;;;6.40;79.90;;;;;;5115201;28;20069;-36
2021/03/27 05:49:03;;;;;;;13.68;5.15;;;6.30;81.00;;;;;;5113518;28;20104;-36
2021/03/27 05:52:06;;;;;;;11.85;5.82;;;6.30;80.50;;;;;;5114996;28;20079;-36
2021/03/27 05:55:03;;;;;;;11.18;4.75;;;6.10;82.60;;;;;;5113671;28;20110;-36
2021/03/27 05:57:53;;;;;;;16.13;5.07;;;6.00;83.00;;;;;;5114668;28;20460;-36
2021/03/27 06:00:33;;;;;;;21.40;5.97;;;5.90;83.80;;;;;;5113506;28;20024;-37
2021/03/27 06:03:27;;;;;;;21.70;5.87;;;5.90;83.90;;;;;;5114788;28;20032;-37
2021/03/27 06:06:11;;;;;;;25.92;8.05;;;5.90;84.50;;;;;;5114779;28;20066;-36
2021/03/27 06:08:50;;;;;;;17.13;5.75;;;6.00;84.50;;;;;;5114561;28;20483;-36
2021/03/27 06:11:36;;;;;;;14.02;5.38;;;6.00;84.50;;;;;;5114694;28;20023;-36
2021/03/27 06:14:11;;;;;;;9.88;7.05;;;5.80;85.40;;;;;;5114823;28;20062;-37
2021/03/27 06:16:48;;;;;;;11.93;8.57;;;5.40;84.10;;;;;;5114357;28;20066;-37
2021/03/27 06:19:33;;;;;;;14.40;9.35;;;5.30;85.20;;;;;;5114297;28;20115;-37
2021/03/27 06:22:28;;;;;;;18.05;9.07;;;5.10;86.00;;;;;;5112623;28;20047;-37
2021/03/27 06:25:13;;;;;;;14.02;7.82;;;5.20;86.10;;;;;;5114304;28;20020;-37
2021/03/27 06:28:16;;;;;;;11.48;8.13;;;5.50;84.30;;;;;;5114155;28;20483;-44
2021/03/27 06:31:30;;;;;;;10.15;6.30;;;5.70;83.90;;;;;;5114347;28;20027;-37
2021/03/27 06:34:37;;;;;;;15.85;5.47;;;5.80;83.50;;;;;;5095573;28;20115;-37
2021/03/27 06:37:14;;;;;;;10.93;3.97;;;5.80;83.30;;;;;;5071404;28;20031;-37
2021/03/27 06:40:21;;;;;;;11.10;5.05;;;5.90;83.80;;;;;;5108759;28;20444;-37
2021/03/27 06:43:05;;;;;;;14.88;4.63;;;6.00;82.90;;;;;;5113949;28;20015;-37
2021/03/27 06:45:45;;;;;;;20.05;4.57;;;6.10;81.80;;;;;;5113748;28;20080;-37
2021/03/27 06:48:54;;;;;;;16.02;5.28;;;6.10;82.20;;;;;;5113896;28;20044;-37
2021/03/27 06:51:48;;;;;;;11.48;4.00;;;6.30;81.40;;;;;;5113764;28;20019;-37
2021/03/27 06:54:33;;;;;;;16.92;4.70;;;6.30;80.60;;;;;;5113777;28;20027;-37
2021/03/27 06:57:17;;;;;;;13.77;4.20;;;6.30;80.40;;;;;;5114107;28;20027;-37
2021/03/27 07:00:08;;;;;;;15.07;4.47;;;6.30;80.30;;;;;;5113909;28;20024;-37
2021/03/27 07:03:12;;;;;;;18.58;4.60;;;6.40;79.30;;;;;;5115555;28;20030;-37
2021/03/27 07:05:53;;;;;;;9.32;4.13;;;6.50;79.50;;;;;;5112134;28;20016;-37
2021/03/27 07:08:53;;;;;;;18.70;4.30;;;6.50;78.90;;;;;;5113892;28;20051;-37
2021/03/27 07:12:04;;;;;;;8.52;3.42;;;6.40;78.40;;;;;;5114591;28;20024;-37
2021/03/27 07:14:48;;;;;;;5.07;2.63;;;6.40;79.50;;;;;;5112318;28;20539;-37
2021/03/27 07:17:41;;;;;;;10.35;4.07;;;6.00;80.40;;;;;;5095076;28;20506;-37
2021/03/27 07:20:31;;;;;;;10.30;3.50;;;5.80;81.00;;;;;;5113475;28;20467;-37
2021/03/27 07:23:06;;;;;;;7.53;3.33;;;5.60;81.80;;;;;;5113270;28;20537;-38
2021/03/27 07:26:06;;;;;;;5.90;1.60;;;5.30;84.20;;;;;;5113532;28;20039;-37
2021/03/27 07:29:05;;;;;;;10.57;2.63;;;4.60;82.70;;;;;;5105468;28;20032;-37
2021/03/27 07:31:48;;;;;;;9.05;2.08;;;4.50;84.80;;;;;;5113457;28;20484;-37
2021/03/27 07:34:26;;;;;;;2.03;1.30;;;4.30;85.50;;;;;;5117615;28;20152;-37
2021/03/27 07:37:10;;;;;;;5.00;1.38;;;4.20;86.50;;;;;;5117289;28;20024;-37
2021/03/27 07:39:47;;;;;;;0.90;0.82;;;4.10;86.30;;;;;;5117161;28;20023;-36
2021/03/27 07:42:31;;;;;;;2.22;0.68;;;3.80;86.50;;;;;;5116027;28;20066;-37
2021/03/27 07:44:57;;;;;;;7.28;1.42;;;3.80;86.20;;;;;;5115811;28;20589;-37
2021/03/27 07:47:28;;;;;;;2.10;0.80;;;3.80;86.40;;;;;;5117133;28;20031;-37
2021/03/27 07:50:11;;;;;;;8.90;1.20;;;3.80;86.40;;;;;;5117345;28;20019;-36
2021/03/27 07:53:09;;;;;;;4.28;1.83;;;3.80;87.00;;;;;;5115693;28;20032;-37
2021/03/27 07:55:54;;;;;;;3.08;1.63;;;3.80;87.30;;;;;;5080325;28;20110;-37
2021/03/27 07:58:44;;;;;;;3.08;1.42;;;3.80;87.70;;;;;;5117035;28;20024;-37
2021/03/27 08:01:47;;;;;;;6.45;1.75;;;4.00;87.10;;;;;;5116750;28;20020;-37
2021/03/27 08:04:50;;;;;;;3.20;1.60;;;4.00;86.20;;;;;;5116466;28;20069;-37
2021/03/27 08:07:52;;;;;;;7.00;1.25;;;4.10;87.20;;;;;;5116549;28;20038;-37
2021/03/27 08:10:40;;;;;;;7.88;1.55;;;4.30;85.80;;;;;;5116539;27;20043;-37
2021/03/27 08:13:14;;;;;;;2.80;1.48;;;4.50;85.70;;;;;;5116809;28;20474;-37
2021/03/27 08:15:58;;;;;;;3.97;1.38;;;4.40;85.40;;;;;;5116531;28;20020;-37
2021/03/27 08:19:10;;;;;;;6.80;2.15;;;4.50;86.20;;;;;;5115318;28;20510;-37
2021/03/27 08:21:50;;;;;;;9.00;2.00;;;4.30;86.00;;;;;;5107364;28;20088;-37
2021/03/27 08:24:43;;;;;;;10.57;2.35;;;4.50;85.90;;;;;;5116499;28;20020;-36
2021/03/27 08:27:40;;;;;;;8.25;1.88;;;4.40;85.90;;;;;;5115970;28;20020;-36
2021/03/27 08:30:37;;;;;;;14.05;3.10;;;4.50;85.70;;;;;;5114959;28;20379;-36
2021/03/27 08:33:24;;;;;;;3.08;1.40;;;4.60;84.60;;;;;;5116440;28;20593;-37
2021/03/27 08:36:12;;;;;;;8.75;2.58;;;4.60;85.00;;;;;;5116018;28;20042;-37
2021/03/27 08:39:02;;;;;;;6.75;2.83;;;4.80;84.50;;;;;;5114645;28;20019;-37
2021/03/27 08:41:38;;;;;;;6.85;2.58;;;4.80;84.30;;;;;;5116142;28;20031;-37
2021/03/27 08:44:35;;;;;;;6.53;3.72;;;5.00;84.40;;;;;;5097674;28;20023;-36
2021/03/27 08:47:01;;;;;;;6.13;2.33;;;5.30;82.20;;;;;;5115489;28;20016;-37
2021/03/27 08:49:45;;;;;;;7.35;2.55;;;5.40;82.20;;;;;;5115685;28;20131;-37
2021/03/27 08:52:30;;;;;;;7.53;3.50;;;5.60;82.30;;;;;;5115902;28;20011;-36
2021/03/27 08:55:13;;;;;;;9.07;3.55;;;5.90;81.80;;;;;;5116012;28;20027;-37
2021/03/27 08:58:09;;;;;;;8.50;4.05;;;6.30;79.70;;;;;;5115475;28;20027;-37
2021/03/27 09:00:53;;;;;;;10.02;3.53;;;6.30;79.80;;;;;;5115324;28;20023;-36
2021/03/27 09:03:57;;;;;;;9.05;3.65;;;5.90;80.80;;;;;;5114294;28;20077;-38
2021/03/27 09:06:53;;;;;;;6.30;4.30;;;6.40;79.60;;;;;;5115808;28;20107;-38
2021/03/27 09:09:42;;;;;;;10.40;3.90;;;7.40;76.90;;;;;;5115539;28;20051;-38
2021/03/27 09:12:48;;;;;;;9.00;3.97;;;7.00;76.30;;;;;;5114795;28;20035;-37
2021/03/27 09:15:33;;;;;;;11.68;3.67;;;7.60;75.20;;;;;;5083652;28;20059;-38
2021/03/27 09:18:26;;;;;;;6.72;2.70;;;7.90;73.60;;;;;;5115145;28;20039;-37
2021/03/27 09:21:39;;;;;;;12.95;4.25;;;7.70;74.30;;;;;;5115060;28;20483;-37
2021/03/27 09:24:40;;;;;;;7.45;4.63;;;7.40;75.50;;;;;;5082846;28;20378;-39
2021/03/27 09:27:21;;;;;;;;;;;7.70;73.70;;;;;;5115638;28;20016;-38
2021/03/27 09:30:19;;;;;;;11.88;3.22;;;7.60;73.10;;;;;;5113699;28;19992;-38
2021/03/27 09:32:53;;;;;;;11.52;3.42;;;8.80;69.80;;;;;;5109767;28;20547;-38
2021/03/27 09:35:57;;;;;;;10.15;3.75;;;8.80;69.80;;;;;;5114812;28;20019;-38
2021/03/27 09:38:33;;;;;;;13.00;3.78;;;8.80;69.40;;;;;;5114424;28;20019;-38
2021/03/27 09:41:06;;;;;;;10.77;3.67;;;8.60;69.80;;;;;;5114804;28;20019;-38
2021/03/27 09:43:51;;;;;;;5.47;2.67;;;7.70;72.30;;;;;;5114681;28;20047;-37
2021/03/27 09:46:41;;;;;;;4.57;1.10;;;6.80;73.70;;;;;;5114447;28;20043;-37
2021/03/27 09:49:29;;;;;;;5.57;1.10;;;3.60;82.60;;;;;;5114321;28;20047;-37
2021/03/27 09:52:17;;;;;;;2.75;1.08;;;2.90;86.00;;;;;;5115296;28;20024;-37
2021/03/27 09:54:51;;;;;;;3.40;0.80;;;3.00;85.90;;;;;;5114158;28;20034;-37
2021/03/27 09:57:30;;;;;;;2.35;0.90;;;2.90;85.40;;;;;;5114468;28;20023;-37
2021/03/27 10:00:13;;;;;;;5.72;1.00;;;2.80;85.30;;;;;;5114742;28;20030;-37
2021/03/27 10:02:56;;;;;;;7.10;1.38;;;2.90;85.30;;;;;;5114547;28;20023;-37
2021/03/27 10:05:45;;;;;;;3.35;1.00;;;2.90;85.30;;;;;;5114626;28;20098;-37
2021/03/27 10:08:29;;;;;;;4.13;1.13;;;3.10;85.60;;;;;;5112818;28;20032;-37
2021/03/27 10:11:06;;;;;;;2.95;1.05;;;3.30;84.70;;;;;;5114126;28;20537;-38
2021/03/27 10:13:38;;;;;;;2.83;1.15;;;3.70;83.70;;;;;;5113849;28;20023;-36
2021/03/27 10:16:10;;;;;;;6.57;1.50;;;4.00;83.40;;;;;;5112870;28;20498;-37
2021/03/27 10:19:06;;;;;;;1.83;1.10;;;4.70;81.70;;;;;;5113981;28;20030;-36
2021/03/27 10:21:47;;;;;;;10.93;1.60;;;4.50;82.10;;;;;;5113936;28;20471;-36
2021/03/27 10:24:21;;;;;;;2.67;1.02;;;4.50;82.60;;;;;;5112593;28;20019;-36
2021/03/27 10:26:56;;;;;;;3.42;1.23;;;4.50;82.30;;;;;;5114418;28;20068;-37
2021/03/27 10:32:29;;;;;;;4.20;1.15;;;5.20;80.30;;;;;;5113702;28;20031;-37
2021/03/27 10:35:34;;;;;;;2.80;0.95;;;5.80;78.40;;;;;;5114618;28;20029;-37
2021/03/27 10:38:33;;;;;;;3.63;1.33;;;5.90;77.30;;;;;;5113872;28;20023;-37
2021/03/27 10:41:07;;;;;;;7.55;1.92;;;5.90;77.50;;;;;;5109304;28;20425;-37
2021/03/27 10:43:55;;;;;;;12.18;2.33;;;5.70;79.70;;;;;;5114206;28;20427;-38
2021/03/27 10:46:26;;;;;;;2.92;1.42;;;6.30;76.60;;;;;;5112193;28;20020;-37
2021/03/27 10:49:07;;;;;;;9.60;1.75;;;7.10;73.60;;;;;;5113347;28;20044;-36
2021/03/27 10:52:00;;;;;;;2.20;1.17;;;7.80;73.00;;;;;;5113310;28;20111;-36
2021/03/27 10:54:53;;;;;;;3.65;1.27;;;7.50;72.30;;;;;;5113421;28;20532;-36
2021/03/27 10:57:31;;;;;;;3.88;1.65;;;7.60;73.10;;;;;;5111972;28;20050;-36
2021/03/27 11:00:17;;;;;;;5.97;2.03;;;7.20;71.50;;;;;;5113741;28;20024;-36
2021/03/27 11:03:29;;;;;;;5.82;2.20;;;6.90;73.80;;;;;;5113639;28;20027;-36
2021/03/27 11:05:55;;;;;;;6.00;2.80;;;6.90;74.50;;;;;;5113287;28;20027;-35
2021/03/27 11:08:55;;;;;;;6.90;4.10;;;6.50;75.50;;;;;;5117661;28;20027;-36
2021/03/27 11:11:40;;;;;;;13.73;3.67;;;6.50;75.20;;;;;;5117932;28;20088;-36
2021/03/27 11:14:12;;;;;;;9.57;3.47;;;6.30;75.20;;;;;;5117828;28;20038;-36
2021/03/27 11:17:03;;;;;;;4.80;2.42;;;6.30;75.40;;;;;;5117586;28;20028;-36
2021/03/27 11:20:06;;;;;;;6.00;2.25;;;6.50;72.40;;;;;;5117539;28;20114;-36
2021/03/27 11:23:09;;;;;;;7.30;2.83;;;7.20;68.40;;;;;;5117597;28;20023;-37
2021/03/27 11:25:44;;;;;;;12.23;3.97;;;7.60;67.00;;;;;;5117397;28;20016;-36
2021/03/27 11:28:23;;;;;;;8.35;3.13;;;8.70;64.00;;;;;;5117157;28;20494;-37
2021/03/27 11:31:17;;;;;;;7.80;2.85;;;8.30;66.70;;;;;;5117392;28;20031;-37
2021/03/27 11:33:43;;;;;;;12.20;3.53;;;7.60;68.20;;;;;;5115786;28;20050;-37
2021/03/27 11:36:44;;;;;;;9.57;3.15;;;7.20;71.10;;;;;;5117061;28;20043;-36
2021/03/27 11:39:26;;;;;;;8.77;3.88;;;6.90;71.00;;;;;;5103403;28;20043;-35
2021/03/27 11:42:11;;;;;;;8.57;3.22;;;6.60;73.40;;;;;;5115972;28;20023;-35
2021/03/27 11:45:04;;;;;;;11.90;3.50;;;5.50;74.80;;;;;;5117369;28;20031;-36
2021/03/27 11:47:32;;;;;;;7.45;3.05;;;5.30;76.60;;;;;;5116913;28;20491;-36
2021/03/27 11:50:13;;;;;;;12.45;3.85;;;6.20;76.10;;;;;;5116659;28;20051;-36
2021/03/27 11:52:44;;;;;;;4.60;2.80;;;6.90;74.00;;;;;;5116846;28;20084;-37
2021/03/27 11:55:21;;;;;;;8.57;3.38;;;7.50;72.00;;;;;;5116555;28;20073;-37
2021/03/27 11:57:56;;;;;;;11.50;3.00;;;7.70;71.40;;;;;;5116379;28;20038;-37
2021/03/27 12:03:27;;;;;;;6.88;2.80;;;7.80;70.30;;;;;;5116845;28;20103;-35
2021/03/27 12:06:02;;;;;;;6.13;2.83;;;8.30;68.80;;;;;;5116720;28;20491;-36
2021/03/27 12:08:59;;;;;;;6.80;2.38;;;8.80;64.90;;;;;;5116722;28;20383;-36
2021/03/27 12:11:50;;;;;;;4.55;2.55;;;8.30;66.60;;;;;;5116879;28;20031;-37
2021/03/27 12:14:17;;;;;;;6.35;2.00;;;7.90;68.40;;;;;;5116263;28;20024;-36
2021/03/27 12:17:02;;;;;;;8.70;1.85;;;8.00;65.30;;;;;;5116274;28;20448;-36
2021/03/27 12:20:12;;;;;;;5.30;1.30;;;8.30;59.10;;;;;;5115415;28;20536;-36
2021/03/27 12:22:45;;;;;;;4.07;1.23;;;8.80;55.80;;;;;;5116586;28;20073;-37
2021/03/27 12:25:39;;;;;;;3.00;1.50;;;8.70;53.90;;;;;;5116507;28;20049;-36
2021/03/27 12:28:29;;;;;;;4.40;1.33;;;8.30;56.20;;;;;;5115361;28;20432;-37
2021/03/27 12:31:18;;;;;;;10.10;1.90;;;9.00;56.10;;;;;;5116577;28;20035;-41
2021/03/27 12:33:47;;;;;;;8.55;1.77;;;9.50;54.00;;;;;;5119158;28;20019;-36
2021/03/27 12:36:54;;;;;;;4.47;1.70;;;9.80;54.00;;;;;;5117251;28;20057;-36
2021/03/27 12:39:54;;;;;;;7.18;1.67;;;8.90;57.10;;;;;;5077061;28;20105;-37
2021/03/27 12:42:33;;;;;;;5.43;1.10;;;8.40;58.40;;;;;;5082950;28;20398;-36
2021/03/27 12:45:20;;;;;;;7.85;2.03;;;8.20;60.90;;;;;;5115930;28;20072;-36
2021/03/27 12:48:19;;;;;;;8.65;2.22;;;8.10;61.40;;;;;;5115285;28;20047;-38
2021/03/27 12:51:16;;;;;;;6.07;1.95;;;8.80;58.70;;;;;;5110297;28;20064;-37
2021/03/27 12:54:24;;;;;;;9.57;1.77;;;9.30;57.90;;;;;;5115155;28;20118;-37
2021/03/27 12:57:22;;;;;;;8.57;2.13;;;9.60;56.80;;;;;;5109620;28;20399;-39
2021/03/27 13:00:14;;;;;;;7.65;2.78;;;9.10;56.80;;;;;;5092022;28;20036;-37
2021/03/27 13:03:10;;;;;;;2.63;1.23;;;8.80;57.20;;;;;;5094102;27;20475;-42
2021/03/27 13:06:02;;;;;;;4.22;1.20;;;9.20;53.90;;;;;;5115416;28;20386;-37
2021/03/27 13:08:34;;;;;;;7.85;1.50;;;9.20;52.40;;;;;;5113093;28;20072;-36
2021/03/27 13:11:09;;;;;;;4.95;1.55;;;9.20;50.60;;;;;;5115297;28;20019;-37
2021/03/27 13:13:50;;;;;;;5.47;1.60;;;9.20;49.90;;;;;;5114017;28;20487;-37
2021/03/27 13:16:44;;;;;;;8.25;1.48;;;9.60;50.00;;;;;;5115535;28;20031;-37
2021/03/27 13:19:28;;;;;;;8.80;2.30;;;9.60;49.10;;;;;;5114959;28;20027;-36
2021/03/27 13:22:05;;;;;;;4.25;1.65;;;9.70;49.10;;;;;;5115217;28;20024;-37
2021/03/27 13:24:35;;;;;;;8.95;2.08;;;9.90;48.60;;;;;;5115221;28;20107;-37
2021/03/27 13:27:11;;;;;;;8.15;2.63;;;9.80;48.80;;;;;;5115020;28;20015;-37
2021/03/27 13:29:43;;;;;;;10.07;1.48;;;10.00;47.90;;;;;;5114181;28;20404;-37
2021/03/27 13:32:18;;;;;;;8.18;2.63;;;10.10;47.50;;;;;;5114697;28;20486;-37
2021/03/27 13:34:46;;;;;;;8.90;2.53;;;10.00;47.80;;;;;;5115271;28;20027;-37
2021/03/27 13:37:20;;;;;;;10.25;2.17;;;9.70;48.80;;;;;;5115167;28;20351;-37
2021/03/27 13:39:57;;;;;;;12.73;1.90;;;9.60;49.50;;;;;;5114842;28;20497;-37
2021/03/27 13:42:56;;;;;;;8.50;1.52;;;9.60;47.80;;;;;;5115013;28;20111;-37
2021/03/27 13:45:28;;;;;;;4.55;1.25;;;9.50;47.70;;;;;;5114662;28;20062;-36
2021/03/27 13:48:20;;;;;;;7.88;1.80;;;9.60;46.80;;;;;;5114505;28;20054;-36
2021/03/27 13:51:04;;;;;;;6.13;2.20;;;9.60;45.70;;;;;;5114991;28;20173;-36
2021/03/27 13:53:35;;;;;;;10.27;1.40;;;9.30;46.70;;;;;;5114419;28;20175;-37
2021/03/27 13:56:39;;;;;;;7.40;1.90;;;9.30;46.60;;;;;;5114378;28;20030;-37
2021/03/27 13:59:12;;;;;;;4.20;1.10;;;9.30;45.80;;;;;;5114030;28;20059;-37
2021/03/27 14:01:51;;;;;;;2.58;0.85;;;9.20;44.70;;;;;;5114504;28;20352;-37
2021/03/27 14:04:26;;;;;;;12.25;1.40;;;9.50;44.40;;;;;;5114451;28;20102;-37
2021/03/27 14:06:52;;;;;;;7.47;1.35;;;9.50;45.00;;;;;;5114657;28;20032;-38
2021/03/27 14:09:36;;;;;;;6.00;1.33;;;9.70;44.80;;;;;;5114134;28;20106;-36
2021/03/27 14:12:47;;;;;;;5.97;1.25;;;9.50;43.90;;;;;;5114353;28;20024;-37
2021/03/27 14:15:27;;;;;;;8.00;1.90;;;9.90;43.60;;;;;;5105470;28;20073;-36
2021/03/27 14:18:24;;;;;;;10.07;2.88;;;10.20;44.50;;;;;;5113176;28;20023;-37
2021/03/27 14:20:50;;;;;;;9.75;2.35;;;10.00;45.80;;;;;;5114031;28;20024;-37
2021/03/27 14:23:27;;;;;;;8.07;1.45;;;10.00;46.80;;;;;;5114315;28;20046;-37
2021/03/27 14:26:18;;;;;;;5.68;1.70;;;10.20;47.00;;;;;;5113897;28;20088;-37